sensor_id;sensor_type;location;lat;lon;timestamp;temperature;humidity
9849;DHT22;4963;51.444;6.528;2024-01-15T00:00:21;1.70;99.90
9849;DHT22;4963;51.444;6.528;2024-01-15T00:02:47;1.70;99.90
9849;DHT22;4963;51.444;6.528;2024-01-15T00:05:16;1.70;99.90
9849;DHT22;4963;51.444;6.528;2024-01-15T00:07:43;1.70;99.90
9849;DHT22;4963;51.444;6.528;2024-01-15T00:10:09;1.70;99.90
9849;DHT22;4963;51.444;6.528;2024-01-15T00:12:36;1.70;99.90
9849;DHT22;4963;51.444;6.528;2024-01-15T00:15:04;1.70;99.90
9849;DHT22;4963;51.444;6.528;2024-01-15T00:17:31;1.70;99.90
9849;DHT22;4963;51.444;6.528;2024-01-15T00:19:58;1.70;99.90
9849;DHT22;4963;51.444;6.528;2024-01-15T00:22:26;1.70;99.90
9849;DHT22;4963;51.444;6.528;2024-01-15T00:24:53;1.70;99.90
9849;DHT22;4963;51.444;6.528;2024-01-15T00:27:20;1.70;99.90
9849;DHT22;4963;51.444;6.528;2024-01-15T00:29:47;1.70;99.90
9849;DHT22;4963;51.444;6.528;2024-01-15T00:32:17;1.70;99.90
9849;DHT22;4963;51.444;6.528;2024-01-15T00:34:43;1.70;99.90
9849;DHT22;4963;51.444;6.528;2024-01-15T00:37:10;1.70;99.90
9849;DHT22;4963;51.444;6.528;2024-01-15T00:39:39;1.70;99.90
9849;DHT22;4963;51.444;6.528;2024-01-15T00:42:06;1.70;99.90
9849;DHT22;4963;51.444;6.528;2024-01-15T00:44:32;1.80;99.90
9849;DHT22;4963;51.444;6.528;2024-01-15T00:46:59;1.70;99.90
9849;DHT22;4963;51.444;6.528;2024-01-15T00:49:28;1.80;99.90
9849;DHT22;4963;51.444;6.528;2024-01-15T00:51:55;1.70;99.90
9849;DHT22;4963;51.444;6.528;2024-01-15T00:54:22;1.80;99.90
9849;DHT22;4963;51.444;6.528;2024-01-15T00:56:51;1.80;99.90
9849;DHT22;4963;51.444;6.528;2024-01-15T00:59:18;1.70;99.90
9849;DHT22;4963;51.444;6.528;2024-01-15T01:01:46;1.70;99.90
9849;DHT22;4963;51.444;6.528;2024-01-15T01:04:13;1.70;99.90
9849;DHT22;4963;51.444;6.528;2024-01-15T01:06:40;1.70;99.90
9849;DHT22;4963;51.444;6.528;2024-01-15T01:09:07;1.70;99.90
9849;DHT22;4963;51.444;6.528;2024-01-15T01:11:34;1.80;99.90
9849;DHT22;4963;51.444;6.528;2024-01-15T01:14:02;1.80;99.90
9849;DHT22;4963;51.444;6.528;2024-01-15T01:16:29;1.80;99.90
9849;DHT22;4963;51.444;6.528;2024-01-15T01:18:57;1.80;99.90
9849;DHT22;4963;51.444;6.528;2024-01-15T01:21:23;1.80;99.90
9849;DHT22;4963;51.444;6.528;2024-01-15T01:23:50;1.80;99.90
9849;DHT22;4963;51.444;6.528;2024-01-15T01:26:17;1.80;99.90
9849;DHT22;4963;51.444;6.528;2024-01-15T01:28:44;1.80;99.90
9849;DHT22;4963;51.444;6.528;2024-01-15T01:31:12;1.70;99.90
9849;DHT22;4963;51.444;6.528;2024-01-15T01:33:39;1.70;99.90
9849;DHT22;4963;51.444;6.528;2024-01-15T01:36:07;1.70;99.90
9849;DHT22;4963;51.444;6.528;2024-01-15T01:38:34;1.80;99.90
9849;DHT22;4963;51.444;6.528;2024-01-15T01:41:01;1.70;99.90
9849;DHT22;4963;51.444;6.528;2024-01-15T01:43:28;1.80;99.90
9849;DHT22;4963;51.444;6.528;2024-01-15T01:45:57;1.80;99.90
9849;DHT22;4963;51.444;6.528;2024-01-15T01:48:25;1.80;99.90
9849;DHT22;4963;51.444;6.528;2024-01-15T01:50:53;1.80;99.90
9849;DHT22;4963;51.444;6.528;2024-01-15T01:53:22;1.80;99.90
9849;DHT22;4963;51.444;6.528;2024-01-15T01:55:49;1.80;99.90
9849;DHT22;4963;51.444;6.528;2024-01-15T01:58:17;1.80;99.90
9849;DHT22;4963;51.444;6.528;2024-01-15T02:00:45;1.80;99.90
9849;DHT22;4963;51.444;6.528;2024-01-15T02:03:12;1.80;99.90
9849;DHT22;4963;51.444;6.528;2024-01-15T02:05:43;1.80;99.90
9849;DHT22;4963;51.444;6.528;2024-01-15T02:08:11;1.80;99.90
9849;DHT22;4963;51.444;6.528;2024-01-15T02:10:38;1.80;99.90
9849;DHT22;4963;51.444;6.528;2024-01-15T02:13:06;1.80;99.90
9849;DHT22;4963;51.444;6.528;2024-01-15T02:15:32;1.80;99.90
9849;DHT22;4963;51.444;6.528;2024-01-15T02:18:01;1.80;99.90
9849;DHT22;4963;51.444;6.528;2024-01-15T02:20:28;1.80;99.90
9849;DHT22;4963;51.444;6.528;2024-01-15T02:23:08;1.80;99.90
9849;DHT22;4963;51.444;6.528;2024-01-15T02:25:38;1.90;99.90
9849;DHT22;4963;51.444;6.528;2024-01-15T02:28:09;1.80;99.90
9849;DHT22;4963;51.444;6.528;2024-01-15T02:30:37;1.80;99.90
9849;DHT22;4963;51.444;6.528;2024-01-15T02:33:05;1.80;99.90
9849;DHT22;4963;51.444;6.528;2024-01-15T02:35:32;1.80;99.90
9849;DHT22;4963;51.444;6.528;2024-01-15T02:38:04;1.80;99.90
9849;DHT22;4963;51.444;6.528;2024-01-15T02:40:31;1.80;99.90
9849;DHT22;4963;51.444;6.528;2024-01-15T02:42:58;1.80;99.90
9849;DHT22;4963;51.444;6.528;2024-01-15T02:45:25;1.80;99.90
9849;DHT22;4963;51.444;6.528;2024-01-15T02:47:52;1.80;99.90
9849;DHT22;4963;51.444;6.528;2024-01-15T02:50:19;1.80;99.90
9849;DHT22;4963;51.444;6.528;2024-01-15T02:52:45;1.80;99.90
9849;DHT22;4963;51.444;6.528;2024-01-15T02:55:14;1.80;99.90
9849;DHT22;4963;51.444;6.528;2024-01-15T02:57:41;1.80;99.90
9849;DHT22;4963;51.444;6.528;2024-01-15T03:00:08;1.80;99.90
9849;DHT22;4963;51.444;6.528;2024-01-15T03:02:37;1.80;99.90
9849;DHT22;4963;51.444;6.528;2024-01-15T03:05:05;1.80;99.90
9849;DHT22;4963;51.444;6.528;2024-01-15T03:07:31;1.80;99.90
9849;DHT22;4963;51.444;6.528;2024-01-15T03:09:58;1.70;99.90
9849;DHT22;4963;51.444;6.528;2024-01-15T03:12:27;1.80;99.90
9849;DHT22;4963;51.444;6.528;2024-01-15T03:14:54;1.80;99.90
9849;DHT22;4963;51.444;6.528;2024-01-15T03:17:20;1.80;99.90
9849;DHT22;4963;51.444;6.528;2024-01-15T03:19:47;1.80;99.90
9849;DHT22;4963;51.444;6.528;2024-01-15T03:22:15;1.80;99.90
9849;DHT22;4963;51.444;6.528;2024-01-15T03:24:42;1.80;99.90
9849;DHT22;4963;51.444;6.528;2024-01-15T03:27:09;1.80;99.90
9849;DHT22;4963;51.444;6.528;2024-01-15T03:29:37;1.80;99.90
9849;DHT22;4963;51.444;6.528;2024-01-15T03:32:04;1.70;99.90
9849;DHT22;4963;51.444;6.528;2024-01-15T03:34:31;1.70;99.90
9849;DHT22;4963;51.444;6.528;2024-01-15T03:36:57;1.70;99.90
9849;DHT22;4963;51.444;6.528;2024-01-15T03:39:25;1.70;99.90
9849;DHT22;4963;51.444;6.528;2024-01-15T03:41:52;1.70;99.90
9849;DHT22;4963;51.444;6.528;2024-01-15T03:44:18;1.70;99.90
9849;DHT22;4963;51.444;6.528;2024-01-15T03:46:47;1.80;99.90
9849;DHT22;4963;51.444;6.528;2024-01-15T03:49:15;1.70;99.90
9849;DHT22;4963;51.444;6.528;2024-01-15T03:51:42;1.80;99.90
9849;DHT22;4963;51.444;6.528;2024-01-15T03:54:09;1.70;99.90
9849;DHT22;4963;51.444;6.528;2024-01-15T03:56:35;1.80;99.90
9849;DHT22;4963;51.444;6.528;2024-01-15T03:59:02;1.70;99.90
9849;DHT22;4963;51.444;6.528;2024-01-15T04:01:29;1.70;99.90
9849;DHT22;4963;51.444;6.528;2024-01-15T04:03:57;1.70;99.90
9849;DHT22;4963;51.444;6.528;2024-01-15T04:06:24;1.70;99.90
9849;DHT22;4963;51.444;6.528;2024-01-15T04:08:51;1.70;99.90
9849;DHT22;4963;51.444;6.528;2024-01-15T04:11:18;1.70;99.90
9849;DHT22;4963;51.444;6.528;2024-01-15T04:13:45;1.70;99.90
9849;DHT22;4963;51.444;6.528;2024-01-15T04:16:11;1.70;99.90
9849;DHT22;4963;51.444;6.528;2024-01-15T04:18:38;1.60;99.90
9849;DHT22;4963;51.444;6.528;2024-01-15T04:21:07;1.70;99.90
9849;DHT22;4963;51.444;6.528;2024-01-15T04:23:33;1.70;99.90
9849;DHT22;4963;51.444;6.528;2024-01-15T04:26:00;1.60;99.90
9849;DHT22;4963;51.444;6.528;2024-01-15T04:28:27;1.60;99.90
9849;DHT22;4963;51.444;6.528;2024-01-15T04:30:54;1.60;99.90
9849;DHT22;4963;51.444;6.528;2024-01-15T04:33:21;1.60;99.90
9849;DHT22;4963;51.444;6.528;2024-01-15T04:35:49;1.60;99.90
9849;DHT22;4963;51.444;6.528;2024-01-15T04:38:17;1.60;99.90
9849;DHT22;4963;51.444;6.528;2024-01-15T04:40:44;1.60;99.90
9849;DHT22;4963;51.444;6.528;2024-01-15T04:43:10;1.60;99.90
9849;DHT22;4963;51.444;6.528;2024-01-15T04:45:40;1.60;99.90
9849;DHT22;4963;51.444;6.528;2024-01-15T04:48:07;1.60;99.90
9849;DHT22;4963;51.444;6.528;2024-01-15T04:50:33;1.60;99.90
9849;DHT22;4963;51.444;6.528;2024-01-15T04:53:00;1.60;99.90
9849;DHT22;4963;51.444;6.528;2024-01-15T04:55:28;1.60;99.90
9849;DHT22;4963;51.444;6.528;2024-01-15T04:57:55;1.70;99.90
9849;DHT22;4963;51.444;6.528;2024-01-15T05:00:22;1.70;99.90
9849;DHT22;4963;51.444;6.528;2024-01-15T05:02:49;1.70;99.90
9849;DHT22;4963;51.444;6.528;2024-01-15T05:05:16;1.60;99.90
9849;DHT22;4963;51.444;6.528;2024-01-15T05:07:43;1.60;99.90
9849;DHT22;4963;51.444;6.528;2024-01-15T05:10:10;1.70;99.90
9849;DHT22;4963;51.444;6.528;2024-01-15T05:12:38;1.70;99.90
9849;DHT22;4963;51.444;6.528;2024-01-15T05:15:06;1.70;99.90
9849;DHT22;4963;51.444;6.528;2024-01-15T05:17:33;1.70;99.90
9849;DHT22;4963;51.444;6.528;2024-01-15T05:19:59;1.70;99.90
9849;DHT22;4963;51.444;6.528;2024-01-15T05:22:26;1.70;99.90
9849;DHT22;4963;51.444;6.528;2024-01-15T05:24:53;1.70;99.90
9849;DHT22;4963;51.444;6.528;2024-01-15T05:27:20;1.70;99.90
9849;DHT22;4963;51.444;6.528;2024-01-15T05:29:48;1.70;99.90
9849;DHT22;4963;51.444;6.528;2024-01-15T05:32:15;1.70;99.90
9849;DHT22;4963;51.444;6.528;2024-01-15T05:34:42;1.70;99.90
9849;DHT22;4963;51.444;6.528;2024-01-15T05:37:09;1.70;99.90
9849;DHT22;4963;51.444;6.528;2024-01-15T05:39:35;1.70;99.90
9849;DHT22;4963;51.444;6.528;2024-01-15T05:42:02;1.70;99.90
9849;DHT22;4963;51.444;6.528;2024-01-15T05:44:29;1.70;99.90
9849;DHT22;4963;51.444;6.528;2024-01-15T05:46:58;1.70;99.90
9849;DHT22;4963;51.444;6.528;2024-01-15T05:49:24;1.60;99.90
9849;DHT22;4963;51.444;6.528;2024-01-15T05:51:51;1.70;99.90
9849;DHT22;4963;51.444;6.528;2024-01-15T05:54:18;1.80;99.90
9849;DHT22;4963;51.444;6.528;2024-01-15T05:56:46;1.70;99.90
9849;DHT22;4963;51.444;6.528;2024-01-15T05:59:13;1.80;99.90
9849;DHT22;4963;51.444;6.528;2024-01-15T06:01:39;1.80;99.90
9849;DHT22;4963;51.444;6.528;2024-01-15T06:04:08;1.80;99.90
9849;DHT22;4963;51.444;6.528;2024-01-15T06:06:34;1.80;99.90
9849;DHT22;4963;51.444;6.528;2024-01-15T06:09:01;1.70;99.90
9849;DHT22;4963;51.444;6.528;2024-01-15T06:11:31;1.70;99.90
9849;DHT22;4963;51.444;6.528;2024-01-15T06:13:58;1.70;99.90
9849;DHT22;4963;51.444;6.528;2024-01-15T06:16:26;1.70;99.90
9849;DHT22;4963;51.444;6.528;2024-01-15T06:18:53;1.70;99.90
9849;DHT22;4963;51.444;6.528;2024-01-15T06:21:21;1.70;99.90
9849;DHT22;4963;51.444;6.528;2024-01-15T06:23:48;1.70;99.90
9849;DHT22;4963;51.444;6.528;2024-01-15T06:26:15;1.70;99.90
9849;DHT22;4963;51.444;6.528;2024-01-15T06:28:42;1.80;99.90
9849;DHT22;4963;51.444;6.528;2024-01-15T06:31:09;1.80;99.90
9849;DHT22;4963;51.444;6.528;2024-01-15T06:33:36;1.70;99.90
9849;DHT22;4963;51.444;6.528;2024-01-15T06:36:04;1.70;99.90
9849;DHT22;4963;51.444;6.528;2024-01-15T06:38:32;1.70;99.90
9849;DHT22;4963;51.444;6.528;2024-01-15T06:40:59;1.80;99.90
9849;DHT22;4963;51.444;6.528;2024-01-15T06:43:26;1.70;99.90
9849;DHT22;4963;51.444;6.528;2024-01-15T06:45:53;1.70;99.90
9849;DHT22;4963;51.444;6.528;2024-01-15T06:48:22;1.80;99.90
9849;DHT22;4963;51.444;6.528;2024-01-15T06:50:48;1.80;99.90
9849;DHT22;4963;51.444;6.528;2024-01-15T06:53:15;1.70;99.90
9849;DHT22;4963;51.444;6.528;2024-01-15T06:55:43;1.70;99.90
9849;DHT22;4963;51.444;6.528;2024-01-15T06:58:10;1.70;99.90
9849;DHT22;4963;51.444;6.528;2024-01-15T07:00:37;1.70;99.90
9849;DHT22;4963;51.444;6.528;2024-01-15T07:03:04;1.70;99.90
9849;DHT22;4963;51.444;6.528;2024-01-15T07:05:31;1.70;99.90
9849;DHT22;4963;51.444;6.528;2024-01-15T07:07:58;1.70;99.90
9849;DHT22;4963;51.444;6.528;2024-01-15T07:10:25;1.70;99.90
9849;DHT22;4963;51.444;6.528;2024-01-15T07:12:53;1.70;99.90
9849;DHT22;4963;51.444;6.528;2024-01-15T07:15:20;1.70;99.90
9849;DHT22;4963;51.444;6.528;2024-01-15T07:17:47;1.70;99.90
9849;DHT22;4963;51.444;6.528;2024-01-15T07:20:14;1.70;99.90
9849;DHT22;4963;51.444;6.528;2024-01-15T07:22:43;1.70;99.90
9849;DHT22;4963;51.444;6.528;2024-01-15T07:25:10;1.70;99.90
9849;DHT22;4963;51.444;6.528;2024-01-15T07:27:38;1.80;99.90
9849;DHT22;4963;51.444;6.528;2024-01-15T07:30:07;1.70;99.90
9849;DHT22;4963;51.444;6.528;2024-01-15T07:32:34;1.70;99.90
9849;DHT22;4963;51.444;6.528;2024-01-15T07:35:01;1.70;99.90
9849;DHT22;4963;51.444;6.528;2024-01-15T07:37:28;1.70;99.90
9849;DHT22;4963;51.444;6.528;2024-01-15T07:39:55;1.70;99.90
9849;DHT22;4963;51.444;6.528;2024-01-15T07:42:22;1.70;99.90
9849;DHT22;4963;51.444;6.528;2024-01-15T07:44:49;1.80;99.90
9849;DHT22;4963;51.444;6.528;2024-01-15T07:47:18;1.80;99.90
9849;DHT22;4963;51.444;6.528;2024-01-15T07:49:45;1.80;99.90
9849;DHT22;4963;51.444;6.528;2024-01-15T07:52:12;1.80;99.90
9849;DHT22;4963;51.444;6.528;2024-01-15T07:54:41;1.70;99.90
9849;DHT22;4963;51.444;6.528;2024-01-15T07:57:07;1.80;99.90
9849;DHT22;4963;51.444;6.528;2024-01-15T07:59:35;1.70;99.90
9849;DHT22;4963;51.444;6.528;2024-01-15T08:02:02;1.80;99.90
9849;DHT22;4963;51.444;6.528;2024-01-15T08:04:30;1.70;99.90
9849;DHT22;4963;51.444;6.528;2024-01-15T08:06:58;1.70;99.90
9849;DHT22;4963;51.444;6.528;2024-01-15T08:09:25;1.70;99.90
9849;DHT22;4963;51.444;6.528;2024-01-15T08:11:51;1.60;99.90
9849;DHT22;4963;51.444;6.528;2024-01-15T08:14:18;1.60;99.90
9849;DHT22;4963;51.444;6.528;2024-01-15T08:16:45;1.60;99.90
9849;DHT22;4963;51.444;6.528;2024-01-15T08:19:12;1.70;99.90
9849;DHT22;4963;51.444;6.528;2024-01-15T08:21:41;1.60;99.90
9849;DHT22;4963;51.444;6.528;2024-01-15T08:24:09;1.60;99.90
9849;DHT22;4963;51.444;6.528;2024-01-15T08:26:36;1.60;99.90
9849;DHT22;4963;51.444;6.528;2024-01-15T08:29:03;1.60;99.90
9849;DHT22;4963;51.444;6.528;2024-01-15T08:31:31;1.70;99.90
9849;DHT22;4963;51.444;6.528;2024-01-15T08:33:58;1.70;99.90
9849;DHT22;4963;51.444;6.528;2024-01-15T08:36:25;1.70;99.90
9849;DHT22;4963;51.444;6.528;2024-01-15T08:38:53;1.70;99.90
9849;DHT22;4963;51.444;6.528;2024-01-15T08:41:20;1.70;99.90
9849;DHT22;4963;51.444;6.528;2024-01-15T08:43:47;1.70;99.90
9849;DHT22;4963;51.444;6.528;2024-01-15T08:46:14;1.70;99.90
9849;DHT22;4963;51.444;6.528;2024-01-15T08:48:41;1.70;99.90
9849;DHT22;4963;51.444;6.528;2024-01-15T08:51:08;1.60;99.90
9849;DHT22;4963;51.444;6.528;2024-01-15T08:53:35;1.60;99.90
9849;DHT22;4963;51.444;6.528;2024-01-15T08:56:03;1.50;99.90
9849;DHT22;4963;51.444;6.528;2024-01-15T08:58:31;1.60;99.90
9849;DHT22;4963;51.444;6.528;2024-01-15T09:00:58;1.60;99.90
9849;DHT22;4963;51.444;6.528;2024-01-15T09:03:25;1.60;99.90
9849;DHT22;4963;51.444;6.528;2024-01-15T09:05:52;1.60;99.90
9849;DHT22;4963;51.444;6.528;2024-01-15T09:08:20;1.60;99.90
9849;DHT22;4963;51.444;6.528;2024-01-15T09:10:49;1.60;99.90
9849;DHT22;4963;51.444;6.528;2024-01-15T09:13:18;1.60;99.90
9849;DHT22;4963;51.444;6.528;2024-01-15T09:15:45;1.70;99.90
9849;DHT22;4963;51.444;6.528;2024-01-15T09:18:14;1.70;99.90
9849;DHT22;4963;51.444;6.528;2024-01-15T09:20:41;1.80;99.90
9849;DHT22;4963;51.444;6.528;2024-01-15T09:23:08;1.80;99.90
9849;DHT22;4963;51.444;6.528;2024-01-15T09:25:34;1.80;99.90
9849;DHT22;4963;51.444;6.528;2024-01-15T09:28:01;1.80;99.90
9849;DHT22;4963;51.444;6.528;2024-01-15T09:30:30;1.80;99.90
9849;DHT22;4963;51.444;6.528;2024-01-15T09:32:57;1.80;99.90
9849;DHT22;4963;51.444;6.528;2024-01-15T09:35:23;1.80;99.90
9849;DHT22;4963;51.444;6.528;2024-01-15T09:37:50;1.80;99.90
9849;DHT22;4963;51.444;6.528;2024-01-15T09:40:17;1.80;99.90
9849;DHT22;4963;51.444;6.528;2024-01-15T09:42:47;1.80;99.90
9849;DHT22;4963;51.444;6.528;2024-01-15T09:45:14;1.80;99.90
9849;DHT22;4963;51.444;6.528;2024-01-15T09:47:42;1.80;99.90
9849;DHT22;4963;51.444;6.528;2024-01-15T09:50:09;1.80;99.90
9849;DHT22;4963;51.444;6.528;2024-01-15T09:52:36;1.80;99.90
9849;DHT22;4963;51.444;6.528;2024-01-15T09:55:04;1.80;99.90
9849;DHT22;4963;51.444;6.528;2024-01-15T09:57:31;1.90;99.90
9849;DHT22;4963;51.444;6.528;2024-01-15T09:59:59;1.90;99.90
9849;DHT22;4963;51.444;6.528;2024-01-15T10:02:30;1.90;99.90
9849;DHT22;4963;51.444;6.528;2024-01-15T10:04:59;1.90;99.90
9849;DHT22;4963;51.444;6.528;2024-01-15T10:07:26;1.90;99.90
9849;DHT22;4963;51.444;6.528;2024-01-15T10:09:53;1.90;99.90
9849;DHT22;4963;51.444;6.528;2024-01-15T10:12:21;1.90;99.90
9849;DHT22;4963;51.444;6.528;2024-01-15T10:14:48;2.00;99.90
9849;DHT22;4963;51.444;6.528;2024-01-15T10:17:17;1.90;99.90
9849;DHT22;4963;51.444;6.528;2024-01-15T10:19:46;1.90;99.90
9849;DHT22;4963;51.444;6.528;2024-01-15T10:22:15;1.90;99.90
9849;DHT22;4963;51.444;6.528;2024-01-15T10:24:43;1.90;99.90
9849;DHT22;4963;51.444;6.528;2024-01-15T10:27:11;1.90;99.90
9849;DHT22;4963;51.444;6.528;2024-01-15T10:29:38;1.90;99.90
9849;DHT22;4963;51.444;6.528;2024-01-15T10:32:07;1.90;99.90
9849;DHT22;4963;51.444;6.528;2024-01-15T10:34:37;1.90;99.90
9849;DHT22;4963;51.444;6.528;2024-01-15T10:37:07;2.00;99.90
9849;DHT22;4963;51.444;6.528;2024-01-15T10:39:36;1.90;99.90
9849;DHT22;4963;51.444;6.528;2024-01-15T10:42:03;2.00;99.90
9849;DHT22;4963;51.444;6.528;2024-01-15T10:44:30;2.00;99.90
9849;DHT22;4963;51.444;6.528;2024-01-15T10:46:57;2.00;99.90
9849;DHT22;4963;51.444;6.528;2024-01-15T10:49:24;2.00;99.90
9849;DHT22;4963;51.444;6.528;2024-01-15T10:51:54;2.00;99.90
9849;DHT22;4963;51.444;6.528;2024-01-15T10:54:21;2.00;99.90
9849;DHT22;4963;51.444;6.528;2024-01-15T10:56:51;2.10;99.90
9849;DHT22;4963;51.444;6.528;2024-01-15T10:59:20;2.00;99.90
9849;DHT22;4963;51.444;6.528;2024-01-15T11:01:48;2.10;99.90
9849;DHT22;4963;51.444;6.528;2024-01-15T11:04:15;2.20;99.90
9849;DHT22;4963;51.444;6.528;2024-01-15T11:06:44;2.20;99.90
9849;DHT22;4963;51.444;6.528;2024-01-15T11:09:12;2.30;99.90
9849;DHT22;4963;51.444;6.528;2024-01-15T11:11:41;2.30;99.90
9849;DHT22;4963;51.444;6.528;2024-01-15T11:14:10;2.30;99.90
9849;DHT22;4963;51.444;6.528;2024-01-15T11:16:55;2.30;99.90
9849;DHT22;4963;51.444;6.528;2024-01-15T11:19:22;2.40;99.90
9849;DHT22;4963;51.444;6.528;2024-01-15T11:21:49;2.40;99.90
9849;DHT22;4963;51.444;6.528;2024-01-15T11:24:36;2.30;99.90
9849;DHT22;4963;51.444;6.528;2024-01-15T11:27:04;2.30;99.90
9849;DHT22;4963;51.444;6.528;2024-01-15T11:29:33;2.20;99.90
9849;DHT22;4963;51.444;6.528;2024-01-15T11:32:02;2.20;99.90
9849;DHT22;4963;51.444;6.528;2024-01-15T11:34:52;2.20;99.90
9849;DHT22;4963;51.444;6.528;2024-01-15T11:37:20;2.20;99.90
9849;DHT22;4963;51.444;6.528;2024-01-15T11:39:51;2.20;99.90
9849;DHT22;4963;51.444;6.528;2024-01-15T11:42:19;2.20;99.90
9849;DHT22;4963;51.444;6.528;2024-01-15T11:44:48;2.20;99.90
9849;DHT22;4963;51.444;6.528;2024-01-15T11:47:15;2.20;99.90
9849;DHT22;4963;51.444;6.528;2024-01-15T11:50:07;2.30;99.90
9849;DHT22;4963;51.444;6.528;2024-01-15T11:52:35;2.30;99.90
9849;DHT22;4963;51.444;6.528;2024-01-15T11:55:19;2.30;99.90
9849;DHT22;4963;51.444;6.528;2024-01-15T11:57:47;2.30;99.90
9849;DHT22;4963;51.444;6.528;2024-01-15T12:00:18;2.40;99.90
9849;DHT22;4963;51.444;6.528;2024-01-15T12:02:46;2.30;99.90
9849;DHT22;4963;51.444;6.528;2024-01-15T12:05:14;2.40;99.90
9849;DHT22;4963;51.444;6.528;2024-01-15T12:07:42;2.40;99.90
9849;DHT22;4963;51.444;6.528;2024-01-15T12:10:10;2.40;99.90
9849;DHT22;4963;51.444;6.528;2024-01-15T12:12:46;2.50;99.90
9849;DHT22;4963;51.444;6.528;2024-01-15T12:15:14;2.50;99.90
9849;DHT22;4963;51.444;6.528;2024-01-15T12:17:43;2.50;99.90
9849;DHT22;4963;51.444;6.528;2024-01-15T12:20:11;2.50;99.90
9849;DHT22;4963;51.444;6.528;2024-01-15T12:22:38;2.60;99.90
9849;DHT22;4963;51.444;6.528;2024-01-15T12:25:05;2.60;99.90
9849;DHT22;4963;51.444;6.528;2024-01-15T12:27:33;2.60;99.90
9849;DHT22;4963;51.444;6.528;2024-01-15T12:30:00;2.70;99.90
9849;DHT22;4963;51.444;6.528;2024-01-15T12:32:27;2.70;99.90
9849;DHT22;4963;51.444;6.528;2024-01-15T12:34:55;2.80;99.90
9849;DHT22;4963;51.444;6.528;2024-01-15T12:37:22;2.70;99.90
9849;DHT22;4963;51.444;6.528;2024-01-15T12:39:52;2.70;99.90
9849;DHT22;4963;51.444;6.528;2024-01-15T12:42:21;2.70;99.90
9849;DHT22;4963;51.444;6.528;2024-01-15T12:44:48;2.70;99.90
9849;DHT22;4963;51.444;6.528;2024-01-15T12:47:16;2.70;99.90
9849;DHT22;4963;51.444;6.528;2024-01-15T12:49:46;2.70;99.90
9849;DHT22;4963;51.444;6.528;2024-01-15T12:52:19;2.70;99.90
9849;DHT22;4963;51.444;6.528;2024-01-15T12:54:47;2.70;99.90
9849;DHT22;4963;51.444;6.528;2024-01-15T12:57:16;2.60;99.90
9849;DHT22;4963;51.444;6.528;2024-01-15T12:59:43;2.60;99.90
9849;DHT22;4963;51.444;6.528;2024-01-15T13:02:12;2.60;99.90
9849;DHT22;4963;51.444;6.528;2024-01-15T13:04:39;2.60;99.90
9849;DHT22;4963;51.444;6.528;2024-01-15T13:07:06;2.70;99.90
9849;DHT22;4963;51.444;6.528;2024-01-15T13:09:35;2.70;99.90
9849;DHT22;4963;51.444;6.528;2024-01-15T13:12:02;2.60;99.90
9849;DHT22;4963;51.444;6.528;2024-01-15T13:14:31;2.60;99.90
9849;DHT22;4963;51.444;6.528;2024-01-15T13:16:58;2.60;99.90
9849;DHT22;4963;51.444;6.528;2024-01-15T13:19:25;2.60;99.90
9849;DHT22;4963;51.444;6.528;2024-01-15T13:21:53;2.60;99.90
9849;DHT22;4963;51.444;6.528;2024-01-15T13:24:21;2.60;99.90
9849;DHT22;4963;51.444;6.528;2024-01-15T13:26:50;2.60;99.90
9849;DHT22;4963;51.444;6.528;2024-01-15T13:29:17;2.50;99.90
9849;DHT22;4963;51.444;6.528;2024-01-15T13:31:45;2.60;99.90
9849;DHT22;4963;51.444;6.528;2024-01-15T13:34:13;2.60;99.90
9849;DHT22;4963;51.444;6.528;2024-01-15T13:36:40;2.60;99.90
9849;DHT22;4963;51.444;6.528;2024-01-15T13:39:07;2.60;99.90
9849;DHT22;4963;51.444;6.528;2024-01-15T13:41:35;2.60;99.90
9849;DHT22;4963;51.444;6.528;2024-01-15T13:44:04;2.60;99.90
9849;DHT22;4963;51.444;6.528;2024-01-15T13:46:32;2.60;99.90
9849;DHT22;4963;51.444;6.528;2024-01-15T13:49:01;2.50;99.90
9849;DHT22;4963;51.444;6.528;2024-01-15T13:51:30;2.60;99.90
9849;DHT22;4963;51.444;6.528;2024-01-15T13:53:57;2.60;99.90
9849;DHT22;4963;51.444;6.528;2024-01-15T13:56:24;2.60;99.90
9849;DHT22;4963;51.444;6.528;2024-01-15T13:58:56;2.60;99.90
9849;DHT22;4963;51.444;6.528;2024-01-15T14:01:25;2.60;99.90
9849;DHT22;4963;51.444;6.528;2024-01-15T14:03:52;2.60;99.90
9849;DHT22;4963;51.444;6.528;2024-01-15T14:06:22;2.60;99.90
9849;DHT22;4963;51.444;6.528;2024-01-15T14:08:49;2.60;99.90
9849;DHT22;4963;51.444;6.528;2024-01-15T14:11:17;2.60;99.90
9849;DHT22;4963;51.444;6.528;2024-01-15T14:13:45;2.50;99.90
9849;DHT22;4963;51.444;6.528;2024-01-15T14:16:14;2.50;99.90
9849;DHT22;4963;51.444;6.528;2024-01-15T14:18:43;2.50;99.90
9849;DHT22;4963;51.444;6.528;2024-01-15T14:21:12;2.50;99.90
9849;DHT22;4963;51.444;6.528;2024-01-15T14:23:39;2.50;99.90
9849;DHT22;4963;51.444;6.528;2024-01-15T14:26:06;2.50;99.90
9849;DHT22;4963;51.444;6.528;2024-01-15T14:28:33;2.50;99.90
9849;DHT22;4963;51.444;6.528;2024-01-15T14:31:00;2.40;99.90
9849;DHT22;4963;51.444;6.528;2024-01-15T14:33:35;2.40;99.90
9849;DHT22;4963;51.444;6.528;2024-01-15T14:36:12;2.50;99.90
9849;DHT22;4963;51.444;6.528;2024-01-15T14:38:41;2.40;99.90
9849;DHT22;4963;51.444;6.528;2024-01-15T14:41:10;2.50;99.90
9849;DHT22;4963;51.444;6.528;2024-01-15T14:43:39;2.40;99.90
9849;DHT22;4963;51.444;6.528;2024-01-15T14:46:17;2.50;99.90
9849;DHT22;4963;51.444;6.528;2024-01-15T14:48:51;2.50;99.90
9849;DHT22;4963;51.444;6.528;2024-01-15T14:51:28;2.50;99.90
9849;DHT22;4963;51.444;6.528;2024-01-15T14:53:55;2.50;99.90
9849;DHT22;4963;51.444;6.528;2024-01-15T14:56:25;2.40;99.90
9849;DHT22;4963;51.444;6.528;2024-01-15T14:58:57;2.40;99.90
9849;DHT22;4963;51.444;6.528;2024-01-15T15:01:24;2.40;99.90
9849;DHT22;4963;51.444;6.528;2024-01-15T15:03:51;2.30;99.90
9849;DHT22;4963;51.444;6.528;2024-01-15T15:06:20;2.30;99.90
9849;DHT22;4963;51.444;6.528;2024-01-15T15:08:47;2.30;99.90
9849;DHT22;4963;51.444;6.528;2024-01-15T15:11:14;2.30;99.90
9849;DHT22;4963;51.444;6.528;2024-01-15T15:13:41;2.30;99.90
9849;DHT22;4963;51.444;6.528;2024-01-15T15:16:08;2.30;99.90
9849;DHT22;4963;51.444;6.528;2024-01-15T15:18:35;2.30;99.90
9849;DHT22;4963;51.444;6.528;2024-01-15T15:21:01;2.30;99.90
9849;DHT22;4963;51.444;6.528;2024-01-15T15:23:30;2.30;99.90
9849;DHT22;4963;51.444;6.528;2024-01-15T15:25:57;2.30;99.90
9849;DHT22;4963;51.444;6.528;2024-01-15T15:28:24;2.20;99.90
9849;DHT22;4963;51.444;6.528;2024-01-15T15:30:51;2.20;99.90
9849;DHT22;4963;51.444;6.528;2024-01-15T15:33:18;2.20;99.90
9849;DHT22;4963;51.444;6.528;2024-01-15T15:35:45;2.20;99.90
9849;DHT22;4963;51.444;6.528;2024-01-15T15:38:13;2.10;99.90
9849;DHT22;4963;51.444;6.528;2024-01-15T15:40:41;2.10;99.90
9849;DHT22;4963;51.444;6.528;2024-01-15T15:43:08;2.10;99.90
9849;DHT22;4963;51.444;6.528;2024-01-15T15:45:38;2.10;99.90
9849;DHT22;4963;51.444;6.528;2024-01-15T15:48:05;2.00;99.90
9849;DHT22;4963;51.444;6.528;2024-01-15T15:50:32;2.00;99.90
9849;DHT22;4963;51.444;6.528;2024-01-15T15:53:00;2.00;99.90
9849;DHT22;4963;51.444;6.528;2024-01-15T15:55:29;2.00;99.90
9849;DHT22;4963;51.444;6.528;2024-01-15T15:57:57;1.90;99.90
9849;DHT22;4963;51.444;6.528;2024-01-15T16:00:24;1.90;99.90
9849;DHT22;4963;51.444;6.528;2024-01-15T16:02:51;1.90;99.90
9849;DHT22;4963;51.444;6.528;2024-01-15T16:05:18;1.90;99.90
9849;DHT22;4963;51.444;6.528;2024-01-15T16:07:45;1.90;99.90
9849;DHT22;4963;51.444;6.528;2024-01-15T16:10:13;1.90;99.90
9849;DHT22;4963;51.444;6.528;2024-01-15T16:12:42;1.90;99.90
9849;DHT22;4963;51.444;6.528;2024-01-15T16:15:21;1.80;99.90
9849;DHT22;4963;51.444;6.528;2024-01-15T16:17:49;1.80;99.90
9849;DHT22;4963;51.444;6.528;2024-01-15T16:20:17;1.70;99.90